createdAt,value
2022-10-30T00:00:30.927Z,13.20
2022-10-30T00:03:02.907Z,13.20
2022-10-30T00:05:32.947Z,13.20
2022-10-30T00:08:00.960Z,13.30
2022-10-30T00:10:34.601Z,13.20
2022-10-30T00:13:03.052Z,13.20
2022-10-30T00:15:32.972Z,13.20
2022-10-30T00:18:06.079Z,13.20
2022-10-30T00:20:39.891Z,13.10
2022-10-30T00:23:09.783Z,13.10
2022-10-30T00:25:37.797Z,13.10
2022-10-30T00:28:07.725Z,13.10
2022-10-30T00:30:39.424Z,13.10
2022-10-30T00:33:08.614Z,13.10
2022-10-30T00:35:39.404Z,13.10
2022-10-30T00:38:08.099Z,13.10
2022-10-30T00:40:38.412Z,13.00
2022-10-30T00:43:37.459Z,13.00
2022-10-30T00:46:32.179Z,13.00
2022-10-30T00:49:19.391Z,13.00
2022-10-30T00:52:00.294Z,12.90
2022-10-30T00:54:27.644Z,12.90
2022-10-30T00:56:59.358Z,12.90
2022-10-30T00:59:34.035Z,12.80
2022-10-30T01:02:04.324Z,12.80
2022-10-30T01:04:36.568Z,12.80
2022-10-30T01:07:13.119Z,12.80
2022-10-30T01:09:43.753Z,12.80
2022-10-30T01:12:11.929Z,12.80
2022-10-30T01:14:47.911Z,12.90
2022-10-30T01:17:43.652Z,12.80
2022-10-30T01:20:35.254Z,12.80
2022-10-30T01:23:52.197Z,12.70
2022-10-30T01:26:35.064Z,12.70
2022-10-30T01:29:49.023Z,12.70
2022-10-30T01:32:45.566Z,12.70
2022-10-30T01:36:08.541Z,12.80
2022-10-30T01:39:21.179Z,12.80
2022-10-30T01:41:53.094Z,12.80
2022-10-30T01:44:32.093Z,12.70
2022-10-30T01:47:36.554Z,12.60
2022-10-30T01:50:29.444Z,12.50
2022-10-30T01:53:24.503Z,12.50
2022-10-30T01:56:28.470Z,12.40
2022-10-30T01:59:36.159Z,12.30
2022-10-30T02:02:05.745Z,12.20
2022-10-30T02:04:36.407Z,12.10
2022-10-30T02:07:09.014Z,12.20
2022-10-30T02:09:43.261Z,12.20
2022-10-30T02:12:20.192Z,12.20
2022-10-30T02:15:10.702Z,12.30
2022-10-30T02:17:43.534Z,12.30
2022-10-30T02:20:19.625Z,12.30
2022-10-30T02:22:53.170Z,12.30
2022-10-30T02:25:26.382Z,12.30
2022-10-30T02:27:53.830Z,12.30
2022-10-30T02:30:21.811Z,12.30
2022-10-30T02:32:49.902Z,12.30
2022-10-30T02:35:22.123Z,12.30
2022-10-30T02:37:55.989Z,12.40
2022-10-30T02:40:29.986Z,12.40
2022-10-30T02:43:02.499Z,12.30
2022-10-30T02:45:34.472Z,12.30
2022-10-30T02:48:04.369Z,12.30
2022-10-30T02:50:33.619Z,12.30
2022-10-30T02:53:01.057Z,12.20
2022-10-30T02:55:31.846Z,12.10
2022-10-30T02:58:05.059Z,12.10
2022-10-30T03:00:32.719Z,12.00
2022-10-30T03:03:00.848Z,12.00
2022-10-30T03:05:32.142Z,11.90
2022-10-30T03:08:01.117Z,11.70
2022-10-30T03:10:29.805Z,11.40
2022-10-30T03:12:59.221Z,11.30
2022-10-30T03:15:29.390Z,11.30
2022-10-30T03:17:59.743Z,11.20
2022-10-30T03:20:27.853Z,11.20
2022-10-30T03:22:59.540Z,11.10
2022-10-30T03:25:31.111Z,11.20
2022-10-30T03:28:08.252Z,11.20
2022-10-30T03:30:40.998Z,11.30
2022-10-30T03:33:10.185Z,11.30
2022-10-30T03:35:37.835Z,11.50
2022-10-30T03:38:08.062Z,11.50
2022-10-30T03:40:40.439Z,11.60
2022-10-30T03:43:08.609Z,11.60
2022-10-30T03:45:38.297Z,11.40
2022-10-30T03:48:08.804Z,11.30
2022-10-30T03:50:38.249Z,11.20
2022-10-30T03:53:08.471Z,11.30
2022-10-30T03:55:38.918Z,11.40
2022-10-30T04:01:07.511Z,11.50
2022-10-30T04:03:42.535Z,11.60
2022-10-30T04:06:14.248Z,11.50
2022-10-30T04:08:44.264Z,11.50
2022-10-30T04:11:14.357Z,11.50
2022-10-30T04:13:44.448Z,11.50
2022-10-30T04:16:14.630Z,11.40
2022-10-30T04:18:47.203Z,11.40
2022-10-30T04:21:17.300Z,11.30
2022-10-30T04:23:45.390Z,11.30
2022-10-30T04:26:17.493Z,11.30
2022-10-30T04:28:50.502Z,11.20
2022-10-30T04:31:20.155Z,11.00
2022-10-30T04:36:36.521Z,10.90
2022-10-30T04:39:05.305Z,10.70
2022-10-30T04:41:37.485Z,10.50
2022-10-30T04:44:14.967Z,10.60
2022-10-30T04:46:46.341Z,10.60
2022-10-30T04:49:13.989Z,10.60
2022-10-30T04:51:44.398Z,10.70
2022-10-30T04:54:15.588Z,10.60
2022-10-30T04:56:46.079Z,10.40
2022-10-30T04:59:16.427Z,10.50
2022-10-30T05:01:47.710Z,10.60
2022-10-30T05:04:19.415Z,10.60
2022-10-30T05:06:50.445Z,10.60
2022-10-30T05:09:20.424Z,10.70
2022-10-30T05:11:58.996Z,10.80
2022-10-30T05:14:33.821Z,10.90
2022-10-30T05:17:08.121Z,10.90
2022-10-30T05:19:38.415Z,10.90
2022-10-30T05:22:13.132Z,11.00
2022-10-30T05:24:40.945Z,10.90
2022-10-30T05:27:11.510Z,10.80
2022-10-30T05:29:38.553Z,10.80
2022-10-30T05:32:08.278Z,10.90
2022-10-30T05:34:47.796Z,10.90
2022-10-30T05:37:20.598Z,10.90
2022-10-30T05:39:52.971Z,11.00
2022-10-30T05:45:15.230Z,11.00
2022-10-30T05:47:58.652Z,11.10
2022-10-30T05:50:31.175Z,11.20
2022-10-30T05:53:17.389Z,11.20
2022-10-30T05:55:46.950Z,11.30
2022-10-30T05:58:27.275Z,11.40
2022-10-30T06:00:57.991Z,11.50
2022-10-30T06:03:41.400Z,11.50
2022-10-30T06:06:09.339Z,11.50
2022-10-30T06:08:42.699Z,11.50
2022-10-30T06:11:29.602Z,11.50
2022-10-30T06:14:01.218Z,11.50
2022-10-30T06:16:55.634Z,11.50
2022-10-30T06:19:44.318Z,11.60
2022-10-30T06:22:29.559Z,11.70
2022-10-30T06:25:10.405Z,11.70
2022-10-30T06:27:56.909Z,11.70
2022-10-30T06:30:30.121Z,11.80
2022-10-30T06:33:00.163Z,11.90
2022-10-30T06:35:29.996Z,11.90
2022-10-30T06:38:01.247Z,11.90
2022-10-30T06:40:32.218Z,11.90
2022-10-30T06:43:24.080Z,12.00
2022-10-30T06:46:16.515Z,11.90
2022-10-30T06:48:48.354Z,11.50
2022-10-30T06:51:18.375Z,11.40
2022-10-30T06:53:49.419Z,11.10
2022-10-30T06:56:38.589Z,11.00
2022-10-30T06:59:39.998Z,11.00
2022-10-30T07:02:36.944Z,10.90
2022-10-30T07:05:12.005Z,11.00
2022-10-30T07:07:40.034Z,11.10
2022-10-30T07:10:12.514Z,11.10
2022-10-30T07:13:08.590Z,11.30
2022-10-30T07:15:58.471Z,11.50
2022-10-30T07:18:31.121Z,11.60
2022-10-30T07:21:04.461Z,11.70
2022-10-30T07:23:52.504Z,11.80
2022-10-30T07:26:43.051Z,11.90
2022-10-30T07:29:32.400Z,12.10
2022-10-30T07:32:32.628Z,12.20
2022-10-30T07:35:14.234Z,12.30
2022-10-30T07:38:20.724Z,12.30
2022-10-30T07:41:09.598Z,12.40
2022-10-30T07:43:51.654Z,12.40
2022-10-30T07:46:58.826Z,12.50
2022-10-30T07:49:43.785Z,12.50
2022-10-30T07:52:17.709Z,12.60
2022-10-30T07:54:48.180Z,12.60
2022-10-30T07:57:44.075Z,12.60
2022-10-30T08:00:31.175Z,12.70
2022-10-30T08:03:21.892Z,12.60
2022-10-30T08:06:14.839Z,12.60
2022-10-30T08:08:45.982Z,12.70
2022-10-30T08:11:30.882Z,12.80
2022-10-30T08:14:02.449Z,12.90
2022-10-30T08:16:31.331Z,13.00
2022-10-30T08:19:01.278Z,13.10
2022-10-30T08:21:30.530Z,13.20
2022-10-30T08:24:12.497Z,13.30
2022-10-30T08:26:46.145Z,13.40
2022-10-30T08:29:20.582Z,13.40
2022-10-30T08:31:51.054Z,13.30
2022-10-30T08:34:39.319Z,13.30
2022-10-30T08:37:10.773Z,13.30
2022-10-30T08:39:41.637Z,13.30
2022-10-30T08:42:36.148Z,13.40
2022-10-30T08:45:12.530Z,13.30
2022-10-30T08:48:15.847Z,13.30
2022-10-30T08:50:46.568Z,13.40
2022-10-30T08:53:21.151Z,13.30
2022-10-30T08:55:51.106Z,13.30
2022-10-30T08:58:29.876Z,13.30
2022-10-30T09:01:01.418Z,13.30
2022-10-30T09:03:55.879Z,13.20
2022-10-30T09:07:05.405Z,13.10
2022-10-30T09:10:09.185Z,13.10
2022-10-30T09:12:41.712Z,13.10
2022-10-30T09:15:12.899Z,13.20
2022-10-30T09:18:03.262Z,13.20
2022-10-30T09:20:39.637Z,13.10
2022-10-30T09:23:07.413Z,13.20
2022-10-30T09:25:37.622Z,13.30
2022-10-30T09:28:30.200Z,13.40
2022-10-30T09:31:30.194Z,13.50
2022-10-30T09:33:58.393Z,13.70
2022-10-30T09:36:49.162Z,13.80
2022-10-30T09:39:20.278Z,13.90
2022-10-30T09:42:07.897Z,13.90
2022-10-30T09:45:29.366Z,14.00
2022-10-30T09:48:28.968Z,14.10
2022-10-30T09:51:16.226Z,14.20
2022-10-30T09:54:22.265Z,14.30
2022-10-30T09:57:19.349Z,14.30
2022-10-30T10:00:13.779Z,14.40
2022-10-30T10:03:14.903Z,14.40
2022-10-30T10:06:20.625Z,14.50
2022-10-30T10:09:20.146Z,14.60
2022-10-30T10:12:30.666Z,14.80
2022-10-30T10:15:03.020Z,14.80
2022-10-30T10:17:43.426Z,14.90
2022-10-30T10:20:39.758Z,14.90
2022-10-30T10:23:28.034Z,15.00
2022-10-30T10:26:01.888Z,15.10
2022-10-30T10:28:43.696Z,15.20
2022-10-30T10:31:47.206Z,15.30
2022-10-30T10:34:30.726Z,15.40
2022-10-30T10:37:34.947Z,15.40
2022-10-30T10:40:48.527Z,15.40
2022-10-30T10:43:40.909Z,15.50
2022-10-30T10:46:37.562Z,15.60
2022-10-30T10:49:22.751Z,15.70
2022-10-30T10:52:02.381Z,15.80
2022-10-30T10:54:53.899Z,15.90
2022-10-30T10:57:44.887Z,16.00
2022-10-30T11:00:26.854Z,16.10
2022-10-30T11:03:19.746Z,16.20
2022-10-30T11:06:05.333Z,16.20
2022-10-30T11:08:38.833Z,16.30
2022-10-30T11:11:08.785Z,16.50
2022-10-30T11:13:40.736Z,16.60
2022-10-30T11:16:21.276Z,16.60
2022-10-30T11:18:55.972Z,16.70
2022-10-30T11:21:45.168Z,16.70
2022-10-30T11:24:39.255Z,16.70
2022-10-30T11:27:30.801Z,16.80
2022-10-30T11:30:07.832Z,16.80
2022-10-30T11:32:37.961Z,16.90
2022-10-30T11:35:09.417Z,17.00
2022-10-30T11:37:39.869Z,17.00
2022-10-30T11:40:17.661Z,17.10
2022-10-30T11:43:05.991Z,17.20
2022-10-30T11:48:33.711Z,17.30
2022-10-30T11:51:02.804Z,17.30
2022-10-30T11:53:48.079Z,17.40
2022-10-30T11:56:23.287Z,17.50
2022-10-30T11:59:01.495Z,17.60
2022-10-30T12:01:44.524Z,17.70
2022-10-30T12:04:32.649Z,17.80
2022-10-30T12:07:24.452Z,17.90
2022-10-30T12:09:52.311Z,18.00
2022-10-30T12:12:42.427Z,18.00
2022-10-30T12:15:38.933Z,18.20
2022-10-30T12:18:15.895Z,18.30
2022-10-30T12:20:49.538Z,18.40
2022-10-30T12:23:30.478Z,18.50
2022-10-30T12:26:02.097Z,18.60
2022-10-30T12:28:32.623Z,18.80
2022-10-30T12:31:20.714Z,19.10
2022-10-30T12:37:08.865Z,19.70
2022-10-30T12:39:57.710Z,20.40
2022-10-30T12:42:29.295Z,20.90
2022-10-30T12:45:22.298Z,21.90
2022-10-30T12:48:18.591Z,24.00
2022-10-30T12:51:09.281Z,26.20
2022-10-30T12:54:10.756Z,28.20
2022-10-30T12:56:41.806Z,29.80
2022-10-30T12:59:28.616Z,31.20
2022-10-30T13:02:16.331Z,32.40
2022-10-30T13:04:50.547Z,33.10
2022-10-30T13:07:39.396Z,33.80
2022-10-30T13:10:39.758Z,34.90
2022-10-30T13:13:19.108Z,35.50
2022-10-30T13:15:54.270Z,36.00
2022-10-30T13:18:24.087Z,35.90
2022-10-30T13:21:40.027Z,36.50
2022-10-30T13:24:14.631Z,36.30
2022-10-30T13:27:22.123Z,35.50
2022-10-30T13:30:06.303Z,35.10
2022-10-30T13:33:30.138Z,34.60
2022-10-30T13:36:40.017Z,34.70
2022-10-30T13:39:42.092Z,34.90
2022-10-30T13:42:47.014Z,35.40
2022-10-30T13:45:33.722Z,35.70
2022-10-30T13:48:29.580Z,35.30
2022-10-30T13:51:34.895Z,33.30
2022-10-30T13:54:19.784Z,31.20
2022-10-30T13:56:50.777Z,29.40
2022-10-30T13:59:51.653Z,28.40
2022-10-30T14:02:37.005Z,27.90
2022-10-30T14:05:39.962Z,27.00
2022-10-30T14:08:41.647Z,26.30
2022-10-30T14:11:14.688Z,25.70
2022-10-30T14:14:08.787Z,25.30
2022-10-30T14:16:43.911Z,25.10
2022-10-30T14:19:34.154Z,25.10
2022-10-30T14:22:03.046Z,24.90
2022-10-30T14:24:37.723Z,24.70
2022-10-30T14:27:10.705Z,24.40
2022-10-30T14:29:52.702Z,24.00
2022-10-30T14:32:20.506Z,23.40
2022-10-30T14:35:04.050Z,22.90
2022-10-30T14:37:31.541Z,22.30
2022-10-30T14:40:38.808Z,21.90
2022-10-30T14:43:25.805Z,21.60
2022-10-30T14:46:01.487Z,21.40
2022-10-30T14:48:58.305Z,21.20
2022-10-30T14:51:56.317Z,21.20
2022-10-30T14:54:51.133Z,21.00
2022-10-30T14:57:42.845Z,20.90
2022-10-30T15:00:23.998Z,20.80
2022-10-30T15:03:12.700Z,20.60
2022-10-30T15:06:25.244Z,20.50
2022-10-30T15:09:01.683Z,20.30
2022-10-30T15:11:52.469Z,20.20
2022-10-30T15:17:34.384Z,19.90
2022-10-30T15:20:07.262Z,19.80
2022-10-30T15:22:37.877Z,19.60
2022-10-30T15:25:10.815Z,19.50
2022-10-30T15:27:43.404Z,19.30
2022-10-30T15:30:22.439Z,19.20
2022-10-30T15:32:50.652Z,19.10
2022-10-30T15:35:39.062Z,19.00
2022-10-30T15:38:13.239Z,18.80
2022-10-30T15:40:41.787Z,18.70
2022-10-30T15:43:13.504Z,18.60
2022-10-30T15:45:48.370Z,18.60
2022-10-30T15:48:35.294Z,18.50
2022-10-30T15:51:17.120Z,18.40
2022-10-30T15:54:02.058Z,18.30
2022-10-30T15:57:08.340Z,18.30
2022-10-30T15:59:37.222Z,18.20
2022-10-30T16:02:22.974Z,18.10
2022-10-30T16:04:54.386Z,18.10
2022-10-30T16:07:26.008Z,18.00
2022-10-30T16:10:02.833Z,17.90
2022-10-30T16:12:36.626Z,17.80
2022-10-30T16:15:27.080Z,17.70
2022-10-30T16:18:31.704Z,17.70
2022-10-30T16:21:14.385Z,17.60
2022-10-30T16:23:54.166Z,17.60
2022-10-30T16:26:38.506Z,17.50
2022-10-30T16:29:30.495Z,17.40
2022-10-30T16:31:59.599Z,17.40
2022-10-30T16:34:37.702Z,17.30
2022-10-30T16:39:52.517Z,17.30
2022-10-30T16:42:23.024Z,17.20
2022-10-30T16:45:03.977Z,17.20
2022-10-30T16:47:56.309Z,17.20
2022-10-30T16:50:37.992Z,17.10
2022-10-30T16:53:28.722Z,17.10
2022-10-30T16:55:59.808Z,17.10
2022-10-30T16:58:31.165Z,17.00
2022-10-30T17:01:14.405Z,17.00
2022-10-30T17:03:46.305Z,17.00
2022-10-30T17:06:46.917Z,17.00
2022-10-30T17:09:34.460Z,16.90
2022-10-30T17:12:31.855Z,16.90
2022-10-30T17:15:12.852Z,16.80
2022-10-30T17:17:42.788Z,16.80
2022-10-30T17:20:19.729Z,16.80
2022-10-30T17:23:06.801Z,16.70
2022-10-30T17:25:40.469Z,16.70
2022-10-30T17:28:27.887Z,16.60
2022-10-30T17:30:59.031Z,16.60
2022-10-30T17:33:42.643Z,16.60
2022-10-30T17:36:11.459Z,16.60
2022-10-30T17:38:39.201Z,16.50
2022-10-30T17:41:17.246Z,16.50
2022-10-30T17:43:59.848Z,16.50
2022-10-30T17:46:30.596Z,16.40
2022-10-30T17:48:59.337Z,16.40
2022-10-30T17:51:29.355Z,16.40
2022-10-30T17:53:58.104Z,16.40
2022-10-30T17:56:31.638Z,16.30
2022-10-30T17:58:59.800Z,16.30
2022-10-30T18:01:30.433Z,16.20
2022-10-30T18:04:01.923Z,16.20
2022-10-30T18:06:29.875Z,16.20
2022-10-30T18:08:58.875Z,16.10
2022-10-30T18:11:27.889Z,16.00
2022-10-30T18:13:57.087Z,16.00
2022-10-30T18:16:28.402Z,15.90
2022-10-30T18:18:59.200Z,15.80
2022-10-30T18:21:33.068Z,15.80
2022-10-30T18:24:01.681Z,15.80
2022-10-30T18:26:39.213Z,15.70
2022-10-30T18:29:11.164Z,15.70
2022-10-30T18:31:40.132Z,15.70
2022-10-30T18:34:21.847Z,15.60
2022-10-30T18:36:51.063Z,15.60
2022-10-30T18:39:24.308Z,15.60
2022-10-30T18:41:57.981Z,15.50
2022-10-30T18:44:26.088Z,15.50
2022-10-30T18:47:02.479Z,15.50
2022-10-30T18:49:38.148Z,15.50
2022-10-30T18:52:05.932Z,15.40
2022-10-30T18:54:35.141Z,15.50
2022-10-30T18:57:05.471Z,15.40
2022-10-30T18:59:39.377Z,15.40
2022-10-30T19:02:24.239Z,15.40
2022-10-30T19:04:53.231Z,15.40
2022-10-30T19:07:21.340Z,15.40
2022-10-30T19:09:49.204Z,15.40
2022-10-30T19:12:16.360Z,15.40
2022-10-30T19:14:48.981Z,15.40
2022-10-30T19:17:17.475Z,15.40
2022-10-30T19:19:46.192Z,15.30
2022-10-30T19:22:15.162Z,15.30
2022-10-30T19:24:46.239Z,15.30
2022-10-30T19:27:13.553Z,15.30
2022-10-30T19:29:44.399Z,15.30
2022-10-30T19:32:14.456Z,15.20
2022-10-30T19:34:47.024Z,15.20
2022-10-30T19:37:18.344Z,15.20
2022-10-30T19:39:50.100Z,15.20
2022-10-30T19:42:22.703Z,15.20
2022-10-30T19:44:52.357Z,15.20
2022-10-30T19:47:25.754Z,15.10
2022-10-30T19:49:54.257Z,15.00
2022-10-30T19:52:28.137Z,15.00
2022-10-30T19:54:58.666Z,15.00
2022-10-30T19:57:28.448Z,15.00
2022-10-30T19:59:59.278Z,15.00
2022-10-30T20:02:29.782Z,15.00
2022-10-30T20:05:01.738Z,15.00
2022-10-30T20:07:34.605Z,14.90
2022-10-30T20:10:05.804Z,15.00
2022-10-30T20:12:36.298Z,15.00
2022-10-30T20:15:09.232Z,15.00
2022-10-30T20:17:38.183Z,15.00
2022-10-30T20:20:08.025Z,15.00
2022-10-30T20:22:42.654Z,15.00
2022-10-30T20:25:15.179Z,15.00
2022-10-30T20:27:47.120Z,15.00
2022-10-30T20:30:24.151Z,15.00
2022-10-30T20:32:58.118Z,15.00
2022-10-30T20:35:29.626Z,15.00
2022-10-30T20:38:06.112Z,15.00
2022-10-30T20:40:40.777Z,15.00
2022-10-30T20:43:19.069Z,15.00
2022-10-30T20:45:49.954Z,15.00
2022-10-30T20:48:19.708Z,15.00
2022-10-30T20:50:52.840Z,14.90
2022-10-30T20:53:33.080Z,14.80
2022-10-30T20:56:05.984Z,14.70
2022-10-30T20:58:37.479Z,14.70
2022-10-30T21:01:09.049Z,14.60
2022-10-30T21:03:37.003Z,14.50
2022-10-30T21:06:10.413Z,14.50
2022-10-30T21:08:38.810Z,14.40
2022-10-30T21:11:10.987Z,14.40
2022-10-30T21:13:39.336Z,14.30
2022-10-30T21:16:15.649Z,14.30
2022-10-30T21:18:47.836Z,14.30
2022-10-30T21:21:22.917Z,14.20
2022-10-30T21:24:01.598Z,14.30
2022-10-30T21:26:53.643Z,14.30
2022-10-30T21:29:24.480Z,14.30
2022-10-30T21:31:53.385Z,14.20
2022-10-30T21:34:21.143Z,14.20
2022-10-30T21:36:53.657Z,14.10
2022-10-30T21:39:29.249Z,14.00
2022-10-30T21:42:01.289Z,13.90
2022-10-30T21:44:32.670Z,13.90
2022-10-30T21:47:01.200Z,13.90
2022-10-30T21:49:32.468Z,13.90
2022-10-30T21:52:04.350Z,13.90
2022-10-30T21:54:35.234Z,13.90
2022-10-30T21:57:04.138Z,13.90
2022-10-30T21:59:32.074Z,14.00
2022-10-30T22:02:02.634Z,13.90
2022-10-30T22:04:33.303Z,13.90
2022-10-30T22:07:04.892Z,13.90
2022-10-30T22:09:37.947Z,13.90
2022-10-30T22:12:06.568Z,13.90
2022-10-30T22:14:37.871Z,14.00
2022-10-30T22:17:06.991Z,14.00
2022-10-30T22:19:36.201Z,14.00
2022-10-30T22:22:07.046Z,13.90
2022-10-30T22:24:37.474Z,14.00
2022-10-30T22:27:09.807Z,14.00
2022-10-30T22:29:45.864Z,14.00
2022-10-30T22:32:18.149Z,13.90
2022-10-30T22:34:47.701Z,13.90
2022-10-30T22:37:15.027Z,13.90
2022-10-30T22:39:45.675Z,13.80
2022-10-30T22:42:16.622Z,13.90
2022-10-30T22:44:44.413Z,13.80
2022-10-30T22:47:11.615Z,13.80
2022-10-30T22:49:40.540Z,13.80
2022-10-30T22:52:10.238Z,13.70
2022-10-30T22:54:38.210Z,13.70
2022-10-30T22:57:05.458Z,13.70
2022-10-30T22:59:37.471Z,13.70
2022-10-30T23:02:09.027Z,13.60
2022-10-30T23:04:39.104Z,13.70
2022-10-30T23:07:07.116Z,13.80
2022-10-30T23:09:37.626Z,13.70
2022-10-30T23:12:10.617Z,13.70
2022-10-30T23:14:40.143Z,13.80
2022-10-30T23:17:08.385Z,13.80
2022-10-30T23:19:36.317Z,13.80
2022-10-30T23:22:06.711Z,13.80
2022-10-30T23:24:38.083Z,13.80
2022-10-30T23:27:07.712Z,13.80
2022-10-30T23:29:38.756Z,13.80
2022-10-30T23:32:07.250Z,13.80
2022-10-30T23:34:39.528Z,13.80
2022-10-30T23:37:12.250Z,13.80
2022-10-30T23:39:42.675Z,13.80
2022-10-30T23:42:10.168Z,13.90
2022-10-30T23:44:37.731Z,13.90
2022-10-30T23:47:07.562Z,13.80
2022-10-30T23:49:39.518Z,13.80
2022-10-30T23:52:07.246Z,13.80
2022-10-30T23:54:35.185Z,13.80
2022-10-30T23:57:03.291Z,13.80
2022-10-30T23:59:33.761Z,13.80
